createdAt,value
2017-11-23T00:01:23.803Z,97.65
2017-11-23T00:03:51.320Z,97.78
2017-11-23T00:06:18.845Z,97.40
2017-11-23T00:08:46.360Z,96.84
2017-11-23T00:11:13.886Z,96.15
2017-11-23T00:13:41.399Z,96.12
2017-11-23T00:16:08.944Z,95.17
2017-11-23T00:18:36.457Z,95.23
2017-11-23T00:21:03.996Z,96.68
2017-11-23T00:23:31.507Z,96.55
2017-11-23T00:25:59.005Z,95.86
2017-11-23T00:28:26.544Z,94.98
2017-11-23T00:30:54.048Z,95.39
2017-11-23T00:33:21.639Z,96.18
2017-11-23T00:35:49.166Z,96.79
2017-11-23T00:38:16.698Z,96.77
2017-11-23T00:40:44.197Z,97.39
2017-11-23T00:43:11.716Z,97.86
2017-11-23T00:45:39.250Z,97.84
2017-11-23T00:48:06.781Z,97.90
2017-11-23T00:50:34.283Z,98.59
2017-11-23T00:53:01.800Z,99.22
2017-11-23T00:55:29.312Z,99.34
2017-11-23T00:57:56.816Z,98.62
2017-11-23T01:00:24.347Z,97.67
2017-11-23T01:02:51.879Z,97.28
2017-11-23T01:05:19.411Z,97.59
2017-11-23T01:07:46.933Z,97.91
2017-11-23T01:10:14.460Z,97.97
2017-11-23T01:12:41.990Z,98.89
2017-11-23T01:15:09.489Z,99.65
2017-11-23T01:17:36.983Z,99.69
2017-11-23T01:20:04.482Z,99.42
2017-11-23T01:22:36.873Z,99.17
2017-11-23T01:25:04.419Z,99.08
2017-11-23T01:27:32.030Z,98.83
2017-11-23T01:29:59.528Z,98.69
2017-11-23T01:32:27.052Z,98.39
2017-11-23T01:34:54.547Z,97.86
2017-11-23T01:37:22.031Z,97.89
2017-11-23T01:39:49.536Z,97.66
2017-11-23T01:42:17.038Z,98.73
2017-11-23T01:44:44.741Z,99.06
2017-11-23T01:47:12.250Z,98.90
2017-11-23T01:49:39.772Z,99.11
2017-11-23T01:52:07.279Z,99.09
2017-11-23T01:54:34.796Z,98.87
2017-11-23T01:57:02.298Z,99.16
2017-11-23T01:59:29.803Z,98.97
2017-11-23T02:01:57.325Z,99.31
2017-11-23T02:04:24.846Z,99.13
2017-11-23T02:06:52.381Z,98.84
2017-11-23T02:09:19.922Z,98.58
2017-11-23T02:11:47.604Z,98.63
2017-11-23T02:14:15.125Z,98.67
2017-11-23T02:16:42.624Z,98.30
2017-11-23T02:19:10.116Z,97.90
2017-11-23T02:21:37.631Z,97.77
2017-11-23T02:24:05.138Z,97.99
2017-11-23T02:26:32.930Z,97.54
2017-11-23T02:29:00.430Z,96.93
2017-11-23T02:31:27.962Z,96.56
2017-11-23T02:33:55.457Z,96.93
2017-11-23T02:36:22.990Z,95.75
2017-11-23T02:38:50.487Z,95.42
2017-11-23T02:41:17.995Z,96.30
2017-11-23T02:43:45.493Z,97.67
2017-11-23T02:46:13.004Z,97.47
2017-11-23T02:48:40.519Z,97.19
2017-11-23T02:51:08.031Z,96.29
2017-11-23T02:53:35.532Z,94.44
2017-11-23T02:56:03.035Z,95.19
2017-11-23T02:58:30.559Z,95.47
2017-11-23T03:00:58.137Z,95.00
2017-11-23T03:03:28.757Z,94.73
2017-11-23T03:05:56.249Z,94.59
2017-11-23T03:08:23.754Z,95.03
2017-11-23T03:10:51.262Z,94.10
2017-11-23T03:13:18.763Z,95.96
2017-11-23T03:15:46.281Z,97.24
2017-11-23T03:18:13.810Z,97.92
2017-11-23T03:20:41.330Z,96.66
2017-11-23T03:23:08.840Z,96.59
2017-11-23T03:25:36.361Z,96.12
2017-11-23T03:28:03.877Z,96.23
2017-11-23T03:30:32.408Z,97.19
2017-11-23T03:32:59.916Z,96.91
2017-11-23T03:35:27.412Z,95.90
2017-11-23T03:37:54.922Z,97.77
2017-11-23T03:40:22.444Z,98.35
2017-11-23T03:42:49.967Z,98.21
2017-11-23T03:45:17.489Z,97.66
2017-11-23T03:47:44.986Z,98.00
2017-11-23T03:50:12.473Z,97.43
2017-11-23T03:52:39.974Z,97.46
2017-11-23T03:55:07.478Z,98.35
2017-11-23T03:57:35.009Z,98.28
2017-11-23T04:00:02.523Z,98.42
2017-11-23T04:02:30.029Z,97.63
2017-11-23T04:04:57.539Z,97.33
2017-11-23T04:07:25.049Z,96.66
2017-11-23T04:09:52.550Z,96.21
2017-11-23T04:12:20.051Z,96.51
2017-11-23T04:14:47.562Z,97.77
2017-11-23T04:17:15.112Z,98.36
2017-11-23T04:19:42.647Z,97.69
2017-11-23T04:22:10.163Z,97.96
2017-11-23T04:24:37.675Z,98.43
2017-11-23T04:27:05.196Z,98.47
2017-11-23T04:29:32.723Z,97.95
2017-11-23T04:32:00.238Z,97.93
2017-11-23T04:34:27.763Z,97.52
2017-11-23T04:36:55.286Z,98.06
2017-11-23T04:39:22.790Z,97.74
2017-11-23T04:41:50.306Z,98.04
2017-11-23T04:44:17.814Z,97.99
2017-11-23T04:46:45.324Z,97.57
2017-11-23T04:49:12.838Z,97.76
2017-11-23T04:51:40.338Z,97.58
2017-11-23T04:54:07.849Z,98.01
2017-11-23T04:56:35.381Z,98.34
2017-11-23T04:59:02.899Z,97.66
2017-11-23T05:01:30.419Z,97.52
2017-11-23T05:03:57.925Z,96.80
2017-11-23T05:06:25.439Z,97.40
2017-11-23T05:08:52.962Z,97.15
2017-11-23T05:11:20.486Z,96.69
2017-11-23T05:13:47.982Z,96.83
2017-11-23T05:16:15.488Z,97.39
2017-11-23T05:18:42.988Z,98.27
2017-11-23T05:21:10.524Z,98.22
2017-11-23T05:23:38.083Z,97.53
2017-11-23T05:26:05.609Z,97.79
2017-11-23T05:28:33.118Z,97.32
2017-11-23T05:31:00.626Z,97.28
2017-11-23T05:33:28.129Z,97.04
2017-11-23T05:35:55.659Z,99.33
2017-11-23T05:38:23.176Z,99.15
2017-11-23T05:40:50.681Z,97.84
2017-11-23T05:43:18.184Z,97.06
2017-11-23T05:45:45.716Z,97.82
2017-11-23T05:48:13.210Z,98.58
2017-11-23T05:50:40.717Z,98.22
2017-11-23T05:53:08.218Z,97.95
2017-11-23T05:55:35.719Z,98.05
2017-11-23T05:58:03.232Z,98.23
2017-11-23T06:00:30.761Z,98.32
2017-11-23T06:02:58.273Z,97.96
2017-11-23T06:05:25.780Z,98.13
2017-11-23T06:07:53.270Z,97.70
2017-11-23T06:10:20.819Z,97.87
2017-11-23T06:12:48.318Z,98.48
2017-11-23T06:15:15.831Z,98.82
2017-11-23T06:17:43.332Z,98.94
2017-11-23T06:20:10.843Z,98.36
2017-11-23T06:22:38.358Z,97.98
2017-11-23T06:25:05.864Z,97.89
2017-11-23T06:27:33.412Z,98.92
2017-11-23T06:30:00.948Z,98.57
2017-11-23T06:32:28.469Z,98.20
2017-11-23T06:34:55.987Z,98.16
2017-11-23T06:37:23.527Z,97.48
2017-11-23T06:39:51.025Z,96.81
2017-11-23T06:42:18.632Z,98.25
2017-11-23T06:44:46.146Z,98.78
2017-11-23T06:47:13.703Z,98.58
2017-11-23T06:49:41.230Z,98.51
2017-11-23T06:52:08.759Z,98.70
2017-11-23T06:54:36.262Z,98.72
2017-11-23T06:57:03.850Z,97.85
2017-11-23T06:59:31.360Z,96.87
2017-11-23T07:01:58.857Z,96.47
2017-11-23T07:04:26.383Z,97.87
2017-11-23T07:06:53.908Z,98.70
2017-11-23T07:09:21.416Z,97.30
2017-11-23T07:11:48.937Z,97.08
2017-11-23T07:14:16.457Z,96.90
2017-11-23T07:16:43.997Z,96.57
2017-11-23T07:19:11.512Z,97.30
2017-11-23T07:21:39.023Z,96.98
2017-11-23T07:24:06.521Z,97.03
2017-11-23T07:26:34.038Z,94.03
2017-11-23T07:29:01.545Z,92.47
2017-11-23T07:31:29.050Z,93.17
2017-11-23T07:33:56.585Z,93.63
2017-11-23T07:36:24.094Z,95.10
2017-11-23T07:38:51.614Z,95.07
2017-11-23T07:41:19.118Z,95.20
2017-11-23T07:43:46.606Z,92.06
2017-11-23T07:46:14.117Z,92.33
2017-11-23T07:48:41.614Z,92.18
2017-11-23T07:51:09.130Z,93.23
2017-11-23T07:53:36.659Z,92.28
2017-11-23T07:56:04.228Z,93.17
2017-11-23T07:58:31.746Z,93.79
2017-11-23T08:00:59.263Z,90.83
2017-11-23T08:03:26.795Z,89.78
2017-11-23T08:05:54.291Z,88.18
2017-11-23T08:08:21.810Z,88.29
2017-11-23T08:10:49.417Z,88.42
2017-11-23T08:13:16.979Z,88.01
2017-11-23T08:15:44.495Z,87.71
2017-11-23T08:18:12.013Z,88.24
2017-11-23T08:20:39.554Z,88.42
2017-11-23T08:23:07.063Z,87.44
2017-11-23T08:25:34.580Z,87.57
2017-11-23T08:28:02.096Z,88.62
2017-11-23T08:30:29.600Z,88.16
2017-11-23T08:32:57.180Z,87.75
2017-11-23T08:35:24.677Z,88.95
2017-11-23T08:37:52.184Z,89.43
2017-11-23T08:40:19.696Z,91.33
2017-11-23T08:42:47.201Z,90.95
2017-11-23T08:45:14.708Z,91.98
2017-11-23T08:47:42.220Z,91.41
2017-11-23T08:50:09.735Z,89.95
2017-11-23T08:52:37.298Z,83.59
2017-11-23T08:55:04.790Z,82.73
2017-11-23T08:57:32.286Z,80.74
2017-11-23T08:59:59.785Z,78.29
2017-11-23T09:02:27.286Z,75.12
2017-11-23T09:04:54.791Z,74.47
2017-11-23T09:07:22.289Z,76.90
2017-11-23T09:09:49.776Z,76.79
2017-11-23T09:12:17.285Z,72.82
2017-11-23T09:14:44.788Z,69.41
2017-11-23T09:17:12.303Z,67.64
2017-11-23T09:19:39.813Z,65.99
2017-11-23T09:22:07.322Z,66.67
2017-11-23T09:24:34.956Z,69.85
2017-11-23T09:27:02.457Z,71.62
2017-11-23T09:29:29.959Z,72.06
2017-11-23T09:31:57.456Z,73.88
2017-11-23T09:34:24.988Z,74.07
2017-11-23T09:36:52.504Z,76.92
2017-11-23T09:39:20.018Z,76.15
2017-11-23T09:41:47.519Z,75.93
2017-11-23T09:44:15.074Z,76.33
2017-11-23T09:46:42.574Z,77.79
2017-11-23T09:49:10.087Z,76.76
2017-11-23T09:51:37.600Z,79.57
2017-11-23T09:54:05.118Z,78.40
2017-11-23T09:56:32.615Z,77.30
2017-11-23T09:59:00.137Z,78.00
2017-11-23T10:01:27.634Z,79.67
2017-11-23T10:03:55.143Z,78.96
2017-11-23T10:06:22.667Z,77.01
2017-11-23T10:08:50.168Z,80.12
2017-11-23T10:11:17.675Z,80.15
2017-11-23T10:13:45.180Z,80.19
2017-11-23T10:16:12.683Z,81.07
2017-11-23T10:18:40.191Z,78.19
2017-11-23T10:21:07.705Z,74.60
2017-11-23T10:23:35.212Z,72.12
2017-11-23T10:26:02.736Z,69.54
2017-11-23T10:28:30.242Z,66.44
2017-11-23T10:30:57.743Z,67.70
2017-11-23T10:33:25.254Z,65.88
2017-11-23T10:35:52.814Z,66.81
2017-11-23T10:38:20.360Z,66.18
2017-11-23T10:40:47.861Z,62.45
2017-11-23T10:43:15.359Z,63.78
2017-11-23T10:45:42.886Z,63.34
2017-11-23T10:48:10.520Z,55.32
2017-11-23T10:50:38.014Z,57.15
2017-11-23T10:53:05.530Z,53.63
2017-11-23T10:55:33.093Z,54.99
2017-11-23T10:58:00.599Z,50.64
2017-11-23T11:00:28.139Z,53.52
2017-11-23T11:02:55.634Z,57.43
2017-11-23T11:05:23.140Z,56.69
2017-11-23T11:07:50.644Z,56.04
2017-11-23T11:10:18.182Z,56.71
2017-11-23T11:12:45.693Z,55.09
2017-11-23T11:15:13.306Z,57.15
2017-11-23T11:17:40.813Z,52.97
2017-11-23T11:20:08.354Z,55.02
2017-11-23T11:22:35.921Z,59.65
2017-11-23T11:25:03.440Z,60.46
2017-11-23T11:27:30.955Z,59.37
2017-11-23T11:29:58.460Z,62.72
2017-11-23T11:32:25.980Z,63.71
2017-11-23T11:34:53.502Z,60.72
2017-11-23T11:37:21.033Z,50.49
2017-11-23T11:39:48.538Z,45.41
2017-11-23T11:42:16.143Z,42.25
2017-11-23T11:44:43.640Z,36.30
2017-11-23T11:47:11.155Z,41.92
2017-11-23T11:49:38.769Z,48.39
2017-11-23T11:52:06.295Z,47.25
2017-11-23T11:54:33.811Z,45.61
2017-11-23T11:57:01.333Z,51.34
2017-11-23T11:59:28.870Z,53.92
2017-11-23T12:01:56.376Z,59.73
2017-11-23T12:04:23.925Z,59.01
2017-11-23T12:06:51.441Z,57.04
2017-11-23T12:09:18.953Z,55.93
2017-11-23T12:11:46.507Z,57.01
2017-11-23T12:14:25.961Z,54.96
2017-11-23T12:17:03.426Z,55.22
2017-11-23T12:19:42.893Z,51.95
2017-11-23T12:25:41.374Z,52.40
2017-11-23T12:28:20.643Z,51.42
2017-11-23T12:30:48.139Z,50.81
2017-11-23T12:33:15.728Z,47.04
2017-11-23T12:35:43.227Z,48.13
2017-11-23T12:38:10.734Z,43.57
2017-11-23T12:40:38.256Z,40.43
2017-11-23T12:43:05.761Z,39.15
2017-11-23T12:45:33.260Z,38.83
2017-11-23T12:48:00.785Z,36.57
2017-11-23T12:50:28.320Z,36.21
2017-11-23T12:52:55.822Z,39.69
2017-11-23T12:55:23.345Z,41.97
2017-11-23T12:57:50.843Z,42.90
2017-11-23T13:00:18.352Z,51.27
2017-11-23T13:02:45.850Z,57.94
2017-11-23T13:05:13.352Z,50.36
2017-11-23T13:07:40.925Z,46.91
2017-11-23T13:10:08.507Z,47.93
2017-11-23T13:12:36.022Z,48.29
2017-11-23T13:15:03.564Z,48.00
2017-11-23T13:17:31.070Z,49.29
2017-11-23T13:19:58.571Z,47.96
2017-11-23T13:22:26.080Z,46.70
2017-11-23T13:24:53.637Z,56.65
2017-11-23T13:27:21.192Z,53.98
2017-11-23T13:29:48.748Z,57.76
2017-11-23T13:32:16.275Z,54.23
2017-11-23T13:34:43.794Z,52.83
2017-11-23T13:37:11.300Z,52.95
2017-11-23T13:39:38.790Z,57.58
2017-11-23T13:42:06.275Z,59.22
2017-11-23T13:44:33.799Z,57.29
2017-11-23T13:47:01.345Z,65.85
2017-11-23T13:49:28.839Z,60.96
2017-11-23T13:51:56.345Z,60.04
2017-11-23T13:54:23.844Z,59.72
2017-11-23T13:56:51.343Z,58.17
2017-11-23T13:59:18.883Z,57.94
2017-11-23T14:01:46.501Z,57.43
2017-11-23T14:04:14.024Z,51.18
2017-11-23T14:06:41.535Z,58.99
2017-11-23T14:09:09.063Z,60.80
2017-11-23T14:11:36.580Z,58.93
2017-11-23T14:14:04.077Z,64.87
2017-11-23T14:16:31.576Z,65.42
2017-11-23T14:18:59.074Z,61.51
2017-11-23T14:21:26.578Z,67.59
2017-11-23T14:23:54.076Z,69.47
2017-11-23T14:26:21.576Z,65.64
2017-11-23T14:28:49.086Z,68.30
2017-11-23T14:31:16.583Z,67.34
2017-11-23T14:33:44.093Z,67.69
2017-11-23T14:36:11.599Z,68.97
2017-11-23T14:41:05.895Z,67.25
2017-11-23T14:43:33.463Z,62.37
2017-11-23T14:46:00.974Z,65.75
2017-11-23T14:48:28.481Z,63.81
2017-11-23T14:50:55.991Z,65.43
2017-11-23T14:53:23.506Z,65.15
2017-11-23T14:55:51.032Z,65.63
2017-11-23T14:58:18.572Z,64.46
2017-11-23T15:00:46.072Z,68.29
2017-11-23T15:03:13.577Z,72.33
2017-11-23T15:05:41.070Z,70.93
2017-11-23T15:08:08.599Z,70.21
2017-11-23T15:10:36.141Z,71.78
2017-11-23T15:13:03.677Z,72.62
2017-11-23T15:15:31.170Z,71.32
2017-11-23T15:17:58.691Z,71.94
2017-11-23T15:20:26.207Z,73.19
2017-11-23T15:22:53.706Z,74.46
2017-11-23T15:25:21.224Z,74.51
2017-11-23T15:27:48.723Z,75.68
2017-11-23T15:30:16.245Z,77.20
2017-11-23T15:32:43.772Z,78.61
2017-11-23T15:35:11.285Z,78.16
2017-11-23T15:37:38.799Z,78.91
2017-11-23T15:40:06.303Z,80.81
2017-11-23T15:42:33.818Z,81.53
2017-11-23T15:45:01.324Z,83.49
2017-11-23T15:47:28.831Z,82.95
2017-11-23T15:49:56.323Z,84.59
2017-11-23T15:52:23.825Z,84.33
2017-11-23T15:54:51.336Z,84.81
2017-11-23T15:57:18.861Z,86.95
2017-11-23T15:59:46.375Z,86.23
2017-11-23T16:02:13.880Z,85.40
2017-11-23T16:04:41.389Z,87.53
2017-11-23T16:07:08.903Z,89.08
2017-11-23T16:09:36.413Z,88.36
2017-11-23T16:12:03.965Z,86.32
2017-11-23T16:14:31.603Z,87.44
2017-11-23T16:16:59.125Z,87.69
2017-11-23T16:19:26.634Z,87.20
2017-11-23T16:21:54.162Z,87.48
2017-11-23T16:24:21.662Z,86.65
2017-11-23T16:26:49.175Z,86.39
2017-11-23T16:29:16.710Z,88.00
2017-11-23T16:31:44.248Z,86.36
2017-11-23T16:34:11.750Z,86.57
2017-11-23T16:36:41.640Z,87.42
2017-11-23T16:39:14.655Z,88.57
2017-11-23T16:41:59.052Z,90.14
2017-11-23T16:47:45.098Z,89.37
2017-11-23T16:50:27.506Z,90.48
2017-11-23T16:53:12.540Z,92.17
2017-11-23T16:55:45.768Z,92.41
2017-11-23T16:58:17.703Z,91.39
2017-11-23T17:00:50.938Z,92.43
2017-11-23T17:06:51.331Z,90.71
2017-11-23T17:09:34.503Z,90.44
2017-11-23T17:12:08.086Z,91.78
2017-11-23T17:14:41.142Z,91.98
2017-11-23T17:17:24.339Z,91.50
2017-11-23T17:19:51.879Z,90.67
2017-11-23T17:22:19.394Z,91.33
2017-11-23T17:24:46.910Z,91.77
2017-11-23T17:27:14.412Z,90.88
2017-11-23T17:29:41.936Z,91.69
2017-11-23T17:32:09.446Z,91.86
2017-11-23T17:34:36.934Z,91.06
2017-11-23T17:37:04.431Z,90.63
2017-11-23T17:39:31.969Z,91.24
2017-11-23T17:41:59.465Z,91.36
2017-11-23T17:44:26.976Z,90.99
2017-11-23T17:46:54.479Z,90.61
2017-11-23T17:49:21.984Z,89.09
2017-11-23T17:51:49.544Z,89.65
2017-11-23T17:54:17.063Z,89.75
2017-11-23T17:56:44.573Z,89.43
2017-11-23T17:59:12.104Z,89.19
2017-11-23T18:01:39.619Z,88.94
2017-11-23T18:04:07.132Z,87.83
2017-11-23T18:06:34.659Z,88.84
2017-11-23T18:09:02.191Z,90.46
2017-11-23T18:11:29.712Z,91.28
2017-11-23T18:13:57.232Z,92.81
2017-11-23T18:16:24.747Z,93.21
2017-11-23T18:18:52.265Z,93.29
2017-11-23T18:21:19.788Z,93.93
2017-11-23T18:23:47.401Z,94.00
2017-11-23T18:26:14.907Z,94.96
2017-11-23T18:28:42.530Z,94.43
2017-11-23T18:31:10.068Z,93.85
2017-11-23T18:33:37.617Z,93.90
2017-11-23T18:36:05.121Z,92.69
2017-11-23T18:38:32.633Z,92.42
2017-11-23T18:41:00.143Z,93.42
2017-11-23T18:43:27.665Z,95.23
2017-11-23T18:45:55.209Z,95.73
2017-11-23T18:48:22.720Z,95.15
2017-11-23T18:50:50.263Z,95.04
2017-11-23T18:53:17.768Z,94.69
2017-11-23T18:55:45.285Z,93.82
2017-11-23T18:58:12.778Z,93.71
2017-11-23T19:00:40.297Z,94.54
2017-11-23T19:03:07.875Z,94.13
2017-11-23T19:05:35.441Z,93.40
2017-11-23T19:08:02.960Z,93.76
2017-11-23T19:10:30.508Z,94.58
2017-11-23T19:12:58.035Z,95.11
2017-11-23T19:15:25.579Z,95.04
2017-11-23T19:17:53.108Z,95.45
2017-11-23T19:20:20.673Z,95.65
2017-11-23T19:22:48.213Z,95.57
2017-11-23T19:25:15.740Z,95.73
2017-11-23T19:27:43.259Z,96.15
2017-11-23T19:30:10.784Z,96.59
2017-11-23T19:32:38.343Z,97.26
2017-11-23T19:35:05.859Z,97.13
2017-11-23T19:37:33.404Z,97.05
2017-11-23T19:40:01.008Z,96.75
2017-11-23T19:42:28.522Z,96.29
2017-11-23T19:44:56.035Z,95.80
2017-11-23T19:47:23.536Z,97.06
2017-11-23T19:49:51.065Z,96.48
2017-11-23T19:52:18.564Z,96.49
2017-11-23T19:54:46.063Z,96.19
2017-11-23T19:57:13.562Z,95.98
2017-11-23T19:59:41.110Z,96.15
2017-11-23T20:02:08.620Z,96.98
2017-11-23T20:04:36.143Z,96.34
2017-11-23T20:07:03.659Z,96.40
2017-11-23T20:09:31.204Z,96.54
2017-11-23T20:11:58.719Z,97.09
2017-11-23T20:14:26.263Z,96.76
2017-11-23T20:16:53.791Z,97.32
2017-11-23T20:19:21.330Z,97.09
2017-11-23T20:21:48.881Z,97.23
2017-11-23T20:24:16.380Z,96.93
2017-11-23T20:26:44.010Z,96.98
2017-11-23T20:29:11.669Z,96.29
2017-11-23T20:31:39.239Z,97.08
2017-11-23T20:34:06.750Z,96.84
2017-11-23T20:36:34.288Z,97.20
2017-11-23T20:39:01.906Z,97.78
2017-11-23T20:41:29.439Z,98.47
2017-11-23T20:43:57.338Z,98.53
2017-11-23T20:46:24.988Z,97.99
2017-11-23T20:48:52.522Z,97.89
2017-11-23T20:51:20.071Z,98.08
2017-11-23T20:53:47.592Z,98.17
2017-11-23T20:56:15.230Z,98.91
2017-11-23T20:58:42.731Z,98.88
2017-11-23T21:01:10.276Z,98.92
2017-11-23T21:03:37.820Z,98.89
2017-11-23T21:06:05.370Z,99.01
2017-11-23T21:08:32.911Z,98.90
2017-11-23T21:11:00.416Z,98.56
2017-11-23T21:13:27.922Z,98.39
2017-11-23T21:15:55.450Z,98.68
2017-11-23T21:18:22.988Z,98.90
2017-11-23T21:20:50.498Z,98.92
2017-11-23T21:23:18.025Z,99.05
2017-11-23T21:25:45.570Z,98.81
2017-11-23T21:28:13.087Z,98.32
2017-11-23T21:30:40.617Z,97.62
2017-11-23T21:33:08.150Z,97.36
2017-11-23T21:35:35.688Z,96.87
2017-11-23T21:38:03.215Z,97.26
2017-11-23T21:40:30.753Z,96.81
2017-11-23T21:42:58.270Z,96.89
2017-11-23T21:45:25.830Z,96.82
2017-11-23T21:47:53.340Z,96.28
2017-11-23T21:50:20.843Z,95.67
2017-11-23T21:52:48.347Z,96.76
2017-11-23T21:55:15.856Z,97.59
2017-11-23T21:57:43.364Z,97.06
2017-11-23T22:00:10.884Z,96.60
2017-11-23T22:02:38.392Z,96.96
2017-11-23T22:05:05.904Z,97.19
2017-11-23T22:07:33.415Z,96.57
2017-11-23T22:10:00.960Z,96.95
2017-11-23T22:12:28.459Z,96.72
2017-11-23T22:14:55.980Z,98.22
2017-11-23T22:17:23.478Z,98.46
2017-11-23T22:19:51.007Z,98.20
2017-11-23T22:22:18.521Z,97.86
2017-11-23T22:24:46.010Z,98.38
2017-11-23T22:27:13.552Z,99.38
2017-11-23T22:29:41.068Z,99.39
2017-11-23T22:32:08.575Z,98.79
2017-11-23T22:34:36.149Z,98.75
2017-11-23T22:37:03.667Z,99.42
2017-11-23T22:39:31.190Z,99.80
2017-11-23T22:41:58.707Z,99.90
2017-11-23T22:44:26.209Z,99.73
2017-11-23T22:46:53.706Z,99.53
2017-11-23T22:49:21.207Z,99.03
2017-11-23T22:51:48.710Z,98.92
2017-11-23T22:54:16.308Z,98.75
2017-11-23T22:56:43.823Z,98.78
2017-11-23T22:59:11.745Z,98.37
2017-11-23T23:01:39.296Z,97.76
2017-11-23T23:04:06.790Z,97.41
2017-11-23T23:06:34.310Z,97.56
2017-11-23T23:09:01.814Z,98.34
2017-11-23T23:11:29.344Z,98.36
2017-11-23T23:13:56.856Z,98.13
2017-11-23T23:16:24.347Z,97.44
2017-11-23T23:18:51.878Z,96.99
2017-11-23T23:21:19.379Z,97.09
2017-11-23T23:23:46.879Z,97.88
2017-11-23T23:26:14.383Z,97.63
2017-11-23T23:28:41.911Z,97.03
2017-11-23T23:31:09.416Z,97.23
2017-11-23T23:33:36.912Z,97.79
2017-11-23T23:36:04.407Z,97.23
2017-11-23T23:38:32.760Z,95.82
2017-11-23T23:41:00.337Z,96.43
2017-11-23T23:43:27.840Z,97.94
2017-11-23T23:45:55.355Z,97.53
2017-11-23T23:48:22.874Z,97.46
2017-11-23T23:50:50.402Z,96.92
2017-11-23T23:53:17.906Z,96.55
2017-11-23T23:55:45.432Z,95.85
2017-11-23T23:58:12.933Z,96.04
